Time;durP1;ratioP1;P1;durP2;ratioP2;P2;SDS_P1;SDS_P2;PMS_P1;PMS_P2;Temp;Humidity;BMP_temperature;BMP_pressure;BME280_temperature;BME280_humidity;BME280_pressure;Samples;Min_cycle;Max_cycle;Signal;HPM_P1;HPM_P2
2022/09/12 00:01:49;;;;;;;3.10;2.80;;;11.00;99.90;;;;;;5019870;28;20316;-87
2022/09/12 00:04:16;;;;;;;3.07;2.77;;;11.00;99.90;;;;;;5024082;28;20232;-87
2022/09/12 00:06:44;;;;;;;3.63;2.97;;;10.90;99.90;;;;;;5024637;28;20230;-87
2022/09/12 00:09:12;;;;;;;4.03;3.63;;;10.90;99.90;;;;;;5039419;28;20222;-89
2022/09/12 00:11:41;;;;;;;5.50;3.33;;;10.90;99.90;;;;;;5013296;28;20239;-88
2022/09/12 00:14:08;;;;;;;3.67;2.67;;;10.80;99.90;;;;;;5014579;28;20251;-88
2022/09/12 00:16:36;;;;;;;3.93;2.93;;;10.80;99.90;;;;;;5034336;28;20257;-88
2022/09/12 00:19:05;;;;;;;4.40;4.00;;;10.80;99.90;;;;;;5016913;28;20329;-85
2022/09/12 00:21:33;;;;;;;4.00;3.60;;;10.80;99.90;;;;;;5023824;28;20231;-84
2022/09/12 00:24:01;;;;;;;5.03;3.17;;;10.70;99.90;;;;;;5020776;28;20937;-85
2022/09/12 00:26:28;;;;;;;4.70;3.50;;;10.70;99.90;;;;;;5018916;28;20231;-85
2022/09/12 00:28:55;;;;;;;4.40;4.00;;;10.70;99.90;;;;;;5028321;28;20596;-86
2022/09/12 00:31:25;;;;;;;4.17;3.77;;;10.70;99.90;;;;;;5032913;28;20220;-85
2022/09/12 00:33:53;;;;;;;4.07;3.60;;;10.70;99.90;;;;;;5027670;28;20228;-85
2022/09/12 00:36:22;;;;;;;3.80;3.40;;;10.70;99.90;;;;;;5027411;28;20316;-83
2022/09/12 00:38:50;;;;;;;3.50;3.20;;;10.70;99.90;;;;;;5022999;28;20320;-84
2022/09/12 00:41:20;;;;;;;4.23;3.80;;;10.60;99.90;;;;;;5031536;28;20722;-83
2022/09/12 00:43:48;;;;;;;4.10;3.60;;;10.60;99.90;;;;;;5021511;28;20231;-85
2022/09/12 00:46:26;;;;;;;4.93;4.53;;;10.60;99.90;;;;;;5020583;28;20234;-86
2022/09/12 00:48:58;;;;;;;3.53;3.23;;;10.60;99.90;;;;;;5020400;28;20323;-86
2022/09/12 00:51:25;;;;;;;3.33;3.03;;;10.60;99.90;;;;;;5021294;28;20239;-85
2022/09/12 00:53:55;;;;;;;3.00;2.70;;;10.60;99.90;;;;;;5016094;28;20234;-85
2022/09/12 00:56:24;;;;;;;3.10;2.80;;;10.50;99.90;;;;;;5019768;28;20223;-85
2022/09/12 00:58:55;;;;;;;2.70;2.50;;;10.50;99.90;;;;;;5021138;28;20217;-86
2022/09/12 01:01:22;;;;;;;3.20;2.90;;;10.50;99.90;;;;;;5020285;28;20303;-86
2022/09/12 01:03:48;;;;;;;4.50;3.43;;;10.50;99.90;;;;;;5029828;28;20235;-87
2022/09/12 01:06:20;;;;;;;3.80;3.40;;;10.40;99.90;;;;;;5029364;28;20930;-86
2022/09/12 01:08:48;;;;;;;3.30;3.00;;;10.40;99.90;;;;;;5030001;28;20628;-86
2022/09/12 01:11:16;;;;;;;2.70;2.50;;;10.40;99.90;;;;;;5029289;28;20237;-87
2022/09/12 01:13:45;;;;;;;2.30;2.10;;;10.40;99.90;;;;;;5030507;28;20707;-87
2022/09/12 01:16:12;;;;;;;5.03;2.67;;;10.40;99.90;;;;;;5025836;28;20272;-86
2022/09/12 01:18:51;;;;;;;2.70;2.50;;;10.30;99.90;;;;;;5019322;28;20304;-87
2022/09/12 01:21:33;;;;;;;4.97;2.57;;;10.20;99.90;;;;;;5017573;28;20756;-87
2022/09/12 01:24:34;;;;;;;2.67;2.47;;;10.30;99.90;;;;;;5021350;28;20236;-87
2022/09/12 01:27:33;;;;;;;2.30;2.10;;;10.20;99.90;;;;;;5021829;28;20288;-84
2022/09/12 01:30:21;;;;;;;3.60;2.90;;;10.20;99.90;;;;;;5013566;28;20253;-85
2022/09/12 01:33:10;;;;;;;3.60;3.30;;;10.20;99.90;;;;;;5010830;28;20225;-85
2022/09/12 01:35:45;;;;;;;2.73;2.53;;;10.20;99.90;;;;;;5005645;28;20263;-86
2022/09/12 01:38:23;;;;;;;2.67;2.30;;;10.20;99.90;;;;;;5020794;28;20309;-86
2022/09/12 01:41:00;;;;;;;2.30;2.10;;;10.10;99.90;;;;;;5015865;28;20221;-86
2022/09/12 01:43:35;;;;;;;2.20;2.00;;;10.10;99.90;;;;;;5016365;28;20223;-86
2022/09/12 01:46:09;;;;;;;2.87;2.07;;;10.10;99.90;;;;;;5019164;28;20223;-85
2022/09/12 01:48:40;;;;;;;2.23;2.00;;;10.00;99.90;;;;;;5020370;28;20226;-86
2022/09/12 01:51:12;;;;;;;3.30;3.00;;;10.00;99.90;;;;;;5023744;28;20228;-86
2022/09/12 01:53:43;;;;;;;3.60;2.63;;;10.00;99.90;;;;;;5019477;28;20792;-87
2022/09/12 01:56:13;;;;;;;3.47;3.07;;;9.90;99.90;;;;;;5018481;28;20221;-85
2022/09/12 01:58:44;;;;;;;2.67;2.47;;;9.90;99.90;;;;;;5024367;28;20228;-86
2022/09/12 02:01:17;;;;;;;3.20;2.90;;;9.90;99.90;;;;;;5022703;28;20232;-86
2022/09/12 02:03:48;;;;;;;2.87;2.20;;;9.90;99.90;;;;;;5021683;28;20702;-87
2022/09/12 02:06:19;;;;;;;3.17;2.87;;;9.90;99.90;;;;;;5032534;28;20236;-87
2022/09/12 02:08:51;;;;;;;3.43;3.13;;;9.90;99.90;;;;;;5032378;28;20373;-86
2022/09/12 02:11:18;;;;;;;3.83;3.50;;;9.80;99.90;;;;;;5017864;28;20231;-85
2022/09/12 02:13:51;;;;;;;2.80;2.50;;;9.80;99.90;;;;;;5006945;28;20237;-85
2022/09/12 02:16:22;;;;;;;2.87;2.57;;;9.80;99.90;;;;;;5021708;28;20216;-86
2022/09/12 02:18:53;;;;;;;2.47;2.27;;;9.80;99.90;;;;;;5021451;28;20323;-88
2022/09/12 02:21:23;;;;;;;3.10;2.80;;;9.80;99.90;;;;;;5022723;28;20228;-87
2022/09/12 02:23:55;;;;;;;3.00;2.80;;;9.80;99.90;;;;;;5011114;28;20546;-86
2022/09/12 02:26:28;;;;;;;4.93;3.30;;;9.80;99.90;;;;;;5020601;28;20237;-87
2022/09/12 02:28:55;;;;;;;2.67;2.47;;;9.70;99.90;;;;;;5020648;28;20227;-87
2022/09/12 02:31:27;;;;;;;2.83;2.53;;;9.70;99.90;;;;;;5017387;28;20313;-87
2022/09/12 02:34:09;;;;;;;2.50;2.27;;;9.70;99.90;;;;;;5019557;28;20222;-88
2022/09/12 02:36:46;;;;;;;2.60;2.40;;;9.70;99.90;;;;;;5023183;28;20550;-88
2022/09/12 02:39:13;;;;;;;2.90;2.60;;;9.60;99.90;;;;;;5023699;28;20301;-86
2022/09/12 02:41:39;;;;;;;3.10;2.80;;;9.60;99.90;;;;;;5023039;28;20253;-86
2022/09/12 02:44:06;;;;;;;3.60;2.57;;;9.60;99.90;;;;;;5027595;23;20227;-84
2022/09/12 02:46:38;;;;;;;3.67;3.00;;;9.60;99.90;;;;;;5016613;28;20686;-84
2022/09/12 02:49:05;;;;;;;2.90;2.60;;;9.60;99.90;;;;;;4999220;28;20224;-83
2022/09/12 02:51:32;;;;;;;2.40;2.20;;;9.60;99.90;;;;;;5001487;28;21132;-85
2022/09/12 02:53:59;;;;;;;4.90;3.10;;;9.50;99.90;;;;;;5002351;28;20227;-85
2022/09/12 02:56:28;;;;;;;3.43;3.13;;;9.50;99.90;;;;;;5001635;28;20233;-86
2022/09/12 02:58:59;;;;;;;4.27;3.87;;;9.50;99.90;;;;;;4996918;28;20220;-86
2022/09/12 03:01:39;;;;;;;4.37;3.83;;;9.50;99.90;;;;;;4999719;28;20427;-84
2022/09/12 03:04:25;;;;;;;4.50;4.10;;;9.60;99.90;;;;;;5016341;28;20282;-84
2022/09/12 03:07:04;;;;;;;3.63;3.33;;;9.50;99.90;;;;;;4995176;28;20229;-84
2022/09/12 03:09:39;;;;;;;3.90;3.57;;;9.50;99.90;;;;;;4990442;28;20610;-84
2022/09/12 03:12:20;;;;;;;2.67;2.47;;;9.50;99.90;;;;;;5014373;28;20220;-85
2022/09/12 03:15:02;;;;;;;4.13;3.00;;;9.50;99.90;;;;;;4998199;28;20227;-84
2022/09/12 03:17:43;;;;;;;3.30;3.00;;;9.50;99.90;;;;;;5001848;28;20219;-85
2022/09/12 03:20:13;;;;;;;2.83;2.50;;;9.40;99.90;;;;;;4999117;28;20235;-85
2022/09/12 03:22:49;;;;;;;3.53;3.00;;;9.50;99.90;;;;;;5003112;28;20322;-85
2022/09/12 03:25:18;;;;;;;3.30;3.00;;;9.40;99.90;;;;;;5016435;28;20280;-85
2022/09/12 03:27:55;;;;;;;2.80;2.60;;;9.40;99.90;;;;;;5019665;28;20221;-85
2022/09/12 03:30:22;;;;;;;4.20;3.90;;;9.40;99.90;;;;;;5014186;28;20226;-84
2022/09/12 03:32:53;;;;;;;2.83;2.40;;;9.30;99.90;;;;;;5017548;28;20227;-85
2022/09/12 03:35:21;;;;;;;2.73;2.53;;;9.30;99.90;;;;;;4999470;28;20322;-83
2022/09/12 03:37:49;;;;;;;3.47;2.83;;;9.30;99.90;;;;;;5003316;28;20215;-83
2022/09/12 03:40:16;;;;;;;3.07;2.80;;;9.30;99.90;;;;;;4997382;28;20228;-84
2022/09/12 03:42:42;;;;;;;9.43;3.23;;;9.30;99.90;;;;;;5020174;28;20238;-85
2022/09/12 03:45:10;;;;;;;5.93;3.57;;;9.30;99.90;;;;;;4995300;28;20233;-85
2022/09/12 03:47:37;;;;;;;3.13;2.60;;;9.20;99.90;;;;;;4994386;28;20225;-84
2022/09/12 03:50:06;;;;;;;3.10;2.80;;;9.20;99.90;;;;;;5013855;28;20230;-84
2022/09/12 03:52:33;;;;;;;3.27;2.70;;;9.20;99.90;;;;;;5013711;28;20230;-83
2022/09/12 03:54:59;;;;;;;3.03;2.80;;;9.20;99.90;;;;;;5013603;28;20740;-84
2022/09/12 03:57:26;;;;;;;3.67;2.83;;;9.20;99.90;;;;;;5017371;28;20796;-84
2022/09/12 03:59:53;;;;;;;4.40;2.83;;;9.20;99.90;;;;;;5002042;28;20585;-85
2022/09/12 04:02:19;;;;;;;4.40;3.37;;;9.20;99.90;;;;;;4986995;28;20243;-84
2022/09/12 04:04:47;;;;;;;3.87;2.90;;;9.20;99.90;;;;;;5018160;28;20316;-84
2022/09/12 04:07:16;;;;;;;3.33;2.07;;;9.20;99.90;;;;;;5010031;28;20242;-83
2022/09/12 04:09:42;;;;;;;2.63;2.17;;;9.20;99.90;;;;;;4997464;28;20254;-83
2022/09/12 04:12:09;;;;;;;2.90;2.63;;;9.10;99.90;;;;;;5020456;28;20220;-84
2022/09/12 04:14:36;;;;;;;1.77;1.63;;;9.10;99.90;;;;;;5016389;28;20221;-84
2022/09/12 04:17:02;;;;;;;4.47;2.33;;;9.10;99.90;;;;;;5001612;28;20230;-83
2022/09/12 04:19:29;;;;;;;0.90;0.90;;;9.10;99.90;;;;;;4997444;28;20224;-84
2022/09/12 04:21:56;;;;;;;3.00;2.77;;;9.00;99.90;;;;;;5018871;28;20224;-84
2022/09/12 04:24:24;;;;;;;3.33;2.73;;;9.00;99.90;;;;;;5003057;28;20242;-84
2022/09/12 04:26:51;;;;;;;4.10;2.83;;;9.00;99.90;;;;;;5019160;28;20239;-83
2022/09/12 04:29:17;;;;;;;5.90;2.97;;;8.90;99.90;;;;;;5013829;28;20292;-83
2022/09/12 04:31:44;;;;;;;2.90;2.70;;;8.90;99.90;;;;;;5020480;28;20222;-81
2022/09/12 04:34:11;;;;;;;3.40;3.10;;;8.90;99.90;;;;;;5022248;28;20232;-84
2022/09/12 04:36:38;;;;;;;2.93;2.70;;;8.90;99.90;;;;;;5005671;28;20220;-83
2022/09/12 04:39:06;;;;;;;2.00;1.80;;;8.90;99.90;;;;;;5022817;28;20219;-82
2022/09/12 04:41:36;;;;;;;3.07;2.70;;;8.90;99.90;;;;;;5013781;28;20702;-84
2022/09/12 04:44:05;;;;;;;2.90;2.60;;;8.90;99.90;;;;;;5014161;28;20229;-84
2022/09/12 04:46:34;;;;;;;4.47;3.73;;;8.80;99.90;;;;;;5021264;28;20235;-85
2022/09/12 04:49:01;;;;;;;4.43;3.40;;;8.80;99.90;;;;;;5000307;28;20236;-85
2022/09/12 04:51:29;;;;;;;4.83;4.30;;;8.80;99.90;;;;;;5026919;28;20237;-84
2022/09/12 04:53:58;;;;;;;4.63;4.20;;;8.80;99.90;;;;;;5004639;28;20235;-84
2022/09/12 04:56:26;;;;;;;3.63;3.27;;;8.80;99.90;;;;;;5007048;28;20234;-82
2022/09/12 04:58:56;;;;;;;4.20;3.80;;;8.80;99.90;;;;;;5006509;28;20235;-89
2022/09/12 05:01:23;;;;;;;5.03;4.53;;;8.80;99.90;;;;;;5008792;28;20329;-83
2022/09/12 05:03:51;;;;;;;4.77;3.93;;;8.80;99.90;;;;;;5021594;28;20228;-90
2022/09/12 05:06:20;;;;;;;6.07;4.80;;;8.80;99.90;;;;;;5023289;28;20231;-87
2022/09/12 05:08:47;;;;;;;4.70;4.20;;;8.80;99.90;;;;;;5009450;28;20234;-90
2022/09/12 05:11:17;;;;;;;4.27;3.87;;;8.80;99.90;;;;;;5002512;28;20220;-88
2022/09/12 05:13:43;;;;;;;4.20;3.60;;;8.80;99.90;;;;;;5022424;28;20223;-88
2022/09/12 05:16:14;;;;;;;3.73;3.17;;;8.80;99.90;;;;;;5007880;28;20228;-88
2022/09/12 05:18:41;;;;;;;4.03;3.40;;;8.80;99.90;;;;;;5008648;28;20730;-88
2022/09/12 05:21:10;;;;;;;5.53;4.73;;;8.80;99.90;;;;;;5016597;28;20264;-88
2022/09/12 05:23:37;;;;;;;5.90;5.27;;;8.80;99.90;;;;;;5020651;28;20812;-88
2022/09/12 05:26:05;;;;;;;4.87;3.97;;;8.90;99.90;;;;;;5023847;28;20323;-88
2022/09/12 05:28:34;;;;;;;4.73;4.00;;;8.90;99.90;;;;;;4998159;28;20235;-89
2022/09/12 05:31:02;;;;;;;5.80;4.47;;;8.90;99.90;;;;;;5006344;28;20304;-88
2022/09/12 05:33:31;;;;;;;5.87;3.90;;;8.90;99.90;;;;;;5000402;28;21347;-88
2022/09/12 05:35:58;;;;;;;7.87;4.40;;;8.90;99.90;;;;;;5004223;28;20454;-88
2022/09/12 05:38:27;;;;;;;4.50;4.07;;;9.00;99.90;;;;;;5004438;28;20231;-89
2022/09/12 05:40:53;;;;;;;4.40;4.00;;;9.00;99.90;;;;;;5020495;28;20236;-89
2022/09/12 05:43:20;;;;;;;4.30;3.90;;;9.00;99.90;;;;;;5002301;28;20318;-88
2022/09/12 05:45:47;;;;;;;3.87;3.50;;;9.10;99.90;;;;;;5000984;28;20822;-89
2022/09/12 05:48:13;;;;;;;4.90;3.70;;;9.10;99.90;;;;;;5001003;28;20727;-89
2022/09/12 05:50:42;;;;;;;6.73;4.90;;;9.20;99.90;;;;;;5004043;28;20222;-89
2022/09/12 05:53:09;;;;;;;5.83;4.27;;;9.20;99.90;;;;;;5018079;28;20263;-88
2022/09/12 05:55:35;;;;;;;4.97;3.90;;;9.30;99.90;;;;;;5002853;28;20668;-89
2022/09/12 05:58:02;;;;;;;5.33;4.17;;;9.30;99.90;;;;;;5003981;28;21002;-88
2022/09/12 06:00:29;;;;;;;4.07;3.77;;;9.40;99.90;;;;;;5017597;28;20332;-88
2022/09/12 06:02:55;;;;;;;5.73;4.87;;;9.40;99.90;;;;;;5020340;28;20227;-88
2022/09/12 06:05:23;;;;;;;5.83;4.83;;;9.50;99.90;;;;;;5004503;28;20220;-88
2022/09/12 06:07:51;;;;;;;5.57;4.90;;;9.60;99.90;;;;;;5021992;28;20314;-89
2022/09/12 06:10:18;;;;;;;7.77;6.57;;;9.60;99.90;;;;;;5007374;28;20234;-88
2022/09/12 06:12:45;;;;;;;16.00;7.83;;;9.70;99.90;;;;;;5005525;28;20232;-88
2022/09/12 06:15:13;;;;;;;7.17;6.47;;;9.80;99.90;;;;;;5003555;28;20934;-89
2022/09/12 06:17:39;;;;;;;10.47;7.57;;;9.90;99.90;;;;;;5006656;28;20224;-86
2022/09/12 06:20:07;;;;;;;9.57;8.47;;;10.00;99.90;;;;;;5004824;28;20229;-84
2022/09/12 06:22:34;;;;;;;13.40;9.00;;;10.10;99.90;;;;;;5003696;28;20314;-85
2022/09/12 06:25:02;;;;;;;9.57;8.67;;;10.20;99.90;;;;;;5008541;28;20228;-86
2022/09/12 06:27:28;;;;;;;9.70;8.40;;;10.30;99.90;;;;;;4999002;28;20231;-87
2022/09/12 06:29:55;;;;;;;9.90;8.63;;;10.40;99.90;;;;;;5016976;28;20223;-82
2022/09/12 06:32:22;;;;;;;10.13;9.13;;;10.50;99.90;;;;;;5011826;28;20220;-83
2022/09/12 06:34:49;;;;;;;10.90;9.33;;;10.60;99.90;;;;;;5020748;28;20668;-85
2022/09/12 06:37:16;;;;;;;12.30;9.97;;;10.70;99.90;;;;;;5018856;28;20231;-86
2022/09/12 06:39:43;;;;;;;14.13;11.30;;;10.80;99.90;;;;;;4998228;28;20258;-85
2022/09/12 06:42:12;;;;;;;12.37;11.07;;;10.90;99.90;;;;;;4995183;28;20741;-82
2022/09/12 06:44:40;;;;;;;11.33;10.13;;;11.00;99.90;;;;;;5010921;28;20350;-82
2022/09/12 06:47:07;;;;;;;13.30;10.87;;;11.10;99.90;;;;;;5019880;28;20773;-82
2022/09/12 06:49:34;;;;;;;12.40;11.13;;;11.20;99.90;;;;;;5021534;28;20217;-83
2022/09/12 06:52:01;;;;;;;12.53;10.93;;;11.30;99.90;;;;;;4998262;28;20225;-83
2022/09/12 06:54:28;;;;;;;14.03;11.30;;;11.40;99.90;;;;;;4995658;28;20711;-84
2022/09/12 06:56:55;;;;;;;12.73;11.33;;;11.50;99.90;;;;;;4993582;28;20892;-83
2022/09/12 06:59:23;;;;;;;13.03;11.63;;;11.60;99.90;;;;;;5014435;28;20235;-84
2022/09/12 07:01:50;;;;;;;13.07;11.40;;;11.70;99.90;;;;;;5016229;28;20230;-84
2022/09/12 07:04:17;;;;;;;12.43;11.23;;;11.80;99.90;;;;;;4994249;28;20247;-83
2022/09/12 07:06:44;;;;;;;14.07;12.30;;;11.90;99.90;;;;;;4997457;28;20248;-83
2022/09/12 07:09:13;;;;;;;11.97;10.73;;;11.90;99.90;;;;;;5015443;28;20398;-83
2022/09/12 07:11:43;;;;;;;12.57;11.20;;;12.10;99.90;;;;;;5019883;28;20298;-83
2022/09/12 07:14:12;;;;;;;12.37;10.07;;;12.10;99.90;;;;;;5019647;28;20232;-83
2022/09/12 07:16:41;;;;;;;10.60;9.47;;;12.30;99.90;;;;;;5001591;28;20329;-83
2022/09/12 07:19:08;;;;;;;13.37;10.27;;;12.30;99.90;;;;;;4997500;28;20886;-83
2022/09/12 07:21:38;;;;;;;10.20;9.20;;;12.50;99.90;;;;;;5019216;28;20253;-84
2022/09/12 07:24:07;;;;;;;10.63;9.53;;;12.60;99.90;;;;;;4999851;28;20218;-84
2022/09/12 07:26:34;;;;;;;10.03;9.13;;;12.70;99.90;;;;;;4996172;28;20256;-84
2022/09/12 07:29:01;;;;;;;9.37;8.33;;;12.80;99.90;;;;;;4994058;28;21058;-84
2022/09/12 07:31:28;;;;;;;10.13;9.03;;;12.90;99.90;;;;;;4993833;28;20314;-84
2022/09/12 07:33:56;;;;;;;9.27;8.23;;;13.00;99.90;;;;;;5009104;28;20889;-84
2022/09/12 07:36:25;;;;;;;8.90;8.00;;;13.10;99.90;;;;;;4997052;28;20766;-85
2022/09/12 07:38:55;;;;;;;8.43;7.60;;;13.20;99.90;;;;;;4994535;28;20227;-84
2022/09/12 07:41:23;;;;;;;8.67;7.87;;;13.30;99.90;;;;;;5008369;28;20218;-84
2022/09/12 07:43:52;;;;;;;8.90;8.00;;;13.50;99.90;;;;;;4997943;28;20735;-84
2022/09/12 07:46:18;;;;;;;8.97;7.80;;;13.60;99.90;;;;;;5013352;28;20256;-84
2022/09/12 07:48:50;;;;;;;8.40;7.30;;;13.70;99.90;;;;;;4995513;28;20236;-84
2022/09/12 07:51:19;;;;;;;8.10;7.40;;;13.80;99.90;;;;;;5009732;28;20736;-85
2022/09/12 07:53:47;;;;;;;8.70;6.93;;;14.00;99.90;;;;;;5014107;28;20263;-85
2022/09/12 07:56:15;;;;;;;6.87;6.13;;;14.20;99.90;;;;;;4999608;28;20250;-85
2022/09/12 07:58:43;;;;;;;7.33;5.83;;;14.50;99.90;;;;;;4996697;28;20226;-85
2022/09/12 08:01:12;;;;;;;6.70;5.67;;;14.90;99.90;;;;;;4997969;28;20226;-86
2022/09/12 08:03:39;;;;;;;5.87;4.80;;;15.30;99.90;;;;;;5011723;28;20229;-86
2022/09/12 08:06:08;;;;;;;4.67;4.27;;;15.90;99.90;;;;;;5009328;28;20833;-86
2022/09/12 08:08:37;;;;;;;4.80;4.23;;;16.40;99.90;;;;;;5019343;28;21033;-86
2022/09/12 08:11:05;;;;;;;4.77;4.13;;;16.90;99.90;;;;;;5003950;28;20227;-83
2022/09/12 08:13:33;;;;;;;4.33;3.93;;;17.40;99.90;;;;;;5016447;28;20254;-83
2022/09/12 08:16:02;;;;;;;4.00;3.63;;;17.80;99.90;;;;;;5020631;28;20223;-83
2022/09/12 08:18:29;;;;;;;3.50;3.20;;;18.20;99.90;;;;;;5001556;28;20239;-83
2022/09/12 08:20:57;;;;;;;2.80;2.60;;;18.60;99.90;;;;;;5005235;28;20224;-84
2022/09/12 08:23:24;;;;;;;3.30;3.00;;;19.00;99.90;;;;;;5001390;28;20232;-85
2022/09/12 08:25:55;;;;;;;2.60;2.40;;;19.50;99.90;;;;;;5022130;28;20431;-82
2022/09/12 08:28:22;;;;;;;3.50;2.60;;;20.00;99.90;;;;;;5003829;28;20520;-85
2022/09/12 08:30:49;;;;;;;3.17;2.90;;;20.30;99.90;;;;;;5000439;28;20922;-85
2022/09/12 08:33:16;;;;;;;2.45;2.25;;;20.70;99.90;;;;;;5018249;28;20232;-85
2022/09/12 08:35:42;;;;;;;2.95;2.65;;;21.00;99.90;;;;;;4999541;28;20232;-85
2022/09/12 08:38:09;;;;;;;2.60;2.40;;;21.30;99.90;;;;;;5012999;28;20229;-85
2022/09/12 08:40:46;;;;;;;3.72;2.58;;;21.60;99.90;;;;;;4993898;28;20308;-85
2022/09/12 08:43:26;;;;;;;2.55;2.30;;;21.90;99.90;;;;;;5016946;28;20239;-84
2022/09/12 08:46:00;;;;;;;3.63;2.30;;;22.20;99.70;;;;;;4996677;28;20240;-84
2022/09/12 08:48:26;;;;;;;3.13;2.80;;;22.40;99.40;;;;;;5009300;28;20264;-85
2022/09/12 08:50:53;;;;;;;2.75;2.55;;;22.50;98.20;;;;;;5013782;23;20343;-94
2022/09/12 08:53:24;;;;;;;2.55;2.30;;;22.50;97.10;;;;;;5031640;28;20221;-94
2022/09/12 08:55:57;;;;;;;2.97;2.10;;;22.40;97.60;;;;;;5030186;28;20233;-95
2022/09/12 08:58:28;;;;;;;2.30;2.13;;;22.40;97.90;;;;;;5023324;28;20354;-95
2022/09/12 09:01:02;;;;;;;2.95;2.30;;;22.40;97.50;;;;;;5001124;28;20318;-96
2022/09/12 09:03:48;;;;;;;2.92;2.60;;;22.50;96.40;;;;;;5008476;28;20229;-95
2022/09/12 09:06:30;;;;;;;3.85;2.40;;;22.40;95.40;;;;;;5011843;28;20272;-95
2022/09/12 09:09:05;;;;;;;3.05;2.38;;;22.50;96.50;;;;;;5015838;28;20233;-94
2022/09/12 09:11:47;;;;;;;3.55;2.42;;;22.50;96.80;;;;;;5011906;28;20241;-94
2022/09/12 09:14:48;;;;;;;2.88;2.40;;;22.50;96.30;;;;;;5024863;28;20245;-95
2022/09/12 09:17:22;;;;;;;2.72;2.28;;;22.40;96.40;;;;;;5005309;28;20225;-94
2022/09/12 09:19:56;;;;;;;2.60;1.98;;;22.50;95.90;;;;;;5023227;28;20263;-96
2022/09/12 09:22:34;;;;;;;3.08;2.70;;;22.60;96.60;;;;;;5015902;28;20217;-96
2022/09/12 09:25:07;;;;;;;2.33;2.13;;;22.60;96.10;;;;;;5019043;28;20225;-95
2022/09/12 09:27:41;;;;;;;3.17;2.00;;;22.60;95.60;;;;;;4999114;28;20229;-94
2022/09/12 09:30:15;;;;;;;2.38;2.17;;;22.70;96.30;;;;;;5000654;28;20287;-96
2022/09/12 09:32:44;;;;;;;2.70;1.95;;;22.80;96.10;;;;;;5020992;28;20221;-95
2022/09/12 09:35:18;;;;;;;2.20;2.00;;;22.90;96.50;;;;;;5002761;28;20245;-95
2022/09/12 09:38:00;;;;;;;2.30;2.10;;;23.00;95.30;;;;;;5005447;28;20221;-96
2022/09/12 09:40:37;;;;;;;2.47;2.28;;;23.20;94.30;;;;;;5012871;28;20237;-94
2022/09/12 09:43:12;;;;;;;3.30;2.30;;;23.30;94.80;;;;;;4999234;28;20228;-95
2022/09/12 09:45:44;;;;;;;2.00;1.80;;;23.40;94.90;;;;;;5017564;28;20368;-96
2022/09/12 09:48:18;;;;;;;3.38;2.00;;;23.50;94.90;;;;;;5015563;28;20221;-96
2022/09/12 09:50:48;;;;;;;2.90;1.73;;;23.70;94.50;;;;;;5001313;28;20224;-95
2022/09/12 09:53:29;;;;;;;3.10;1.80;;;23.90;94.80;;;;;;5018234;28;20324;-95
2022/09/12 09:56:00;;;;;;;2.47;1.90;;;24.10;93.70;;;;;;5001881;28;20238;-94
2022/09/12 09:58:31;;;;;;;2.25;1.80;;;24.30;94.10;;;;;;5018237;28;20252;-95
2022/09/12 10:01:01;;;;;;;2.00;1.63;;;24.40;93.20;;;;;;5025851;28;20343;-95
2022/09/12 10:03:34;;;;;;;1.75;1.50;;;24.50;92.00;;;;;;5000827;28;20230;-96
2022/09/12 10:06:06;;;;;;;2.10;1.52;;;24.50;91.70;;;;;;5014066;28;20316;-96
2022/09/12 10:08:36;;;;;;;1.70;1.60;;;24.40;91.90;;;;;;4999493;28;20229;-95
2022/09/12 10:11:05;;;;;;;1.83;1.60;;;24.40;92.50;;;;;;5003063;28;20229;-95
2022/09/12 10:13:39;;;;;;;1.85;1.58;;;24.40;91.80;;;;;;5022338;28;20230;-95
2022/09/12 10:16:19;;;;;;;4.22;1.83;;;24.30;90.90;;;;;;5013345;28;20230;-95
2022/09/12 10:18:46;;;;;;;2.97;1.88;;;24.30;91.50;;;;;;5017049;28;20221;-95
2022/09/12 10:21:22;;;;;;;2.45;2.13;;;24.30;91.50;;;;;;5017978;28;20213;-95
2022/09/12 10:24:02;;;;;;;2.25;2.05;;;24.30;91.90;;;;;;4995139;28;20288;-93
2022/09/12 10:26:34;;;;;;;2.00;1.80;;;24.40;91.00;;;;;;5029910;28;20547;-95
2022/09/12 10:29:10;;;;;;;2.60;2.17;;;24.40;90.60;;;;;;5036347;23;20252;-95
2022/09/12 10:31:46;;;;;;;4.30;2.30;;;24.50;91.10;;;;;;5048779;28;21025;-93
2022/09/12 10:34:24;;;;;;;5.88;2.10;;;24.50;90.70;;;;;;5032956;28;20223;-93
2022/09/12 10:36:54;;;;;;;1.65;1.55;;;24.50;91.10;;;;;;5043210;28;20287;-93
2022/09/12 10:39:21;;;;;;;3.33;1.80;;;24.60;90.70;;;;;;5032050;28;20216;-93
2022/09/12 10:41:48;;;;;;;2.70;2.47;;;24.60;91.30;;;;;;5012013;28;20229;-94
2022/09/12 10:44:17;;;;;;;4.22;2.42;;;24.70;91.10;;;;;;5029030;28;20221;-93
2022/09/12 10:46:46;;;;;;;1.77;1.67;;;24.70;90.80;;;;;;5012630;28;20255;-96
2022/09/12 10:49:21;;;;;;;2.03;1.70;;;24.80;91.10;;;;;;5011805;28;20231;-96
2022/09/12 10:51:48;;;;;;;2.58;2.00;;;24.90;91.50;;;;;;5034860;28;20228;-96
2022/09/12 10:54:19;;;;;;;3.58;1.88;;;25.00;90.70;;;;;;5030658;28;20228;-96
2022/09/12 10:57:03;;;;;;;2.17;1.80;;;25.20;90.10;;;;;;5034449;28;20236;-96
2022/09/12 10:59:42;;;;;;;2.05;1.60;;;25.20;87.40;;;;;;5020849;28;20232;-95
2022/09/12 11:02:20;;;;;;;3.50;1.95;;;25.20;85.90;;;;;;5035601;28;20221;-94
2022/09/12 11:04:58;;;;;;;9.65;2.03;;;25.10;86.10;;;;;;5020242;28;20228;-96
2022/09/12 11:07:47;;;;;;;2.72;1.92;;;25.10;87.70;;;;;;5041703;28;20231;-94
2022/09/12 11:10:26;;;;;;;2.60;2.40;;;24.90;85.60;;;;;;5016956;28;20229;-94
2022/09/12 11:13:01;;;;;;;2.50;2.30;;;24.80;87.20;;;;;;5034955;28;20259;-94
2022/09/12 11:15:50;;;;;;;4.55;2.13;;;24.80;87.20;;;;;;5034718;28;20243;-94
2022/09/12 11:18:34;;;;;;;2.05;1.90;;;24.70;88.30;;;;;;5019503;28;20231;-94
2022/09/12 11:21:25;;;;;;;5.38;2.30;;;24.60;89.00;;;;;;5036290;28;20221;-92
2022/09/12 11:24:23;;;;;;;2.40;1.80;;;24.60;89.00;;;;;;5032163;28;20239;-94
2022/09/12 11:27:14;;;;;;;2.42;1.50;;;24.60;89.40;;;;;;5019649;28;20236;-93
2022/09/12 11:29:49;;;;;;;4.80;1.90;;;24.60;87.20;;;;;;5035098;28;20259;-94
2022/09/12 11:32:43;;;;;;;1.77;1.50;;;24.50;85.90;;;;;;5041147;28;20331;-94
2022/09/12 11:35:18;;;;;;;2.20;1.65;;;24.40;87.20;;;;;;5044158;28;20252;-93
2022/09/12 11:38:07;;;;;;;2.13;1.70;;;24.40;87.40;;;;;;5035626;28;20255;-94
2022/09/12 11:40:41;;;;;;;4.40;1.60;;;24.30;88.40;;;;;;5039741;28;20248;-94
2022/09/12 11:43:22;;;;;;;1.27;1.15;;;24.40;88.60;;;;;;5014087;28;20220;-93
2022/09/12 11:45:50;;;;;;;2.42;1.20;;;24.50;88.00;;;;;;5030307;28;20220;-93
2022/09/12 11:48:27;;;;;;;2.33;1.20;;;24.60;88.40;;;;;;5021825;28;20240;-93
2022/09/12 11:50:56;;;;;;;1.80;1.17;;;24.70;88.70;;;;;;5020433;28;20228;-92
2022/09/12 11:53:28;;;;;;;2.83;1.52;;;24.80;87.70;;;;;;5030684;28;20225;-94
2022/09/12 11:55:59;;;;;;;2.08;1.20;;;24.90;86.80;;;;;;5035509;28;20248;-94
2022/09/12 11:58:28;;;;;;;2.67;0.93;;;25.10;87.60;;;;;;5040882;28;20233;-94
2022/09/12 12:00:59;;;;;;;2.97;1.10;;;25.30;88.20;;;;;;5037155;28;20228;-92
2022/09/12 12:03:32;;;;;;;1.85;1.00;;;25.40;86.10;;;;;;5019533;28;20978;-92
2022/09/12 12:06:04;;;;;;;1.13;0.80;;;25.50;83.50;;;;;;5017040;28;20228;-92
2022/09/12 12:08:37;;;;;;;1.45;1.27;;;25.50;84.60;;;;;;5034791;28;20236;-94
2022/09/12 12:11:06;;;;;;;1.30;0.85;;;25.60;84.70;;;;;;5034037;28;20225;-92
2022/09/12 12:13:37;;;;;;;0.98;0.82;;;25.60;84.60;;;;;;5047714;28;20229;-93
2022/09/12 12:16:07;;;;;;;2.00;1.00;;;25.60;84.20;;;;;;5015739;28;20221;-93
2022/09/12 12:18:37;;;;;;;1.77;0.90;;;25.60;83.50;;;;;;5018175;28;20235;-91
2022/09/12 12:21:32;;;;;;;1.10;0.90;;;25.60;83.80;;;;;;5034026;28;20290;-93
2022/09/12 12:24:12;;;;;;;1.55;1.10;;;25.40;84.50;;;;;;5034466;28;20938;-92
2022/09/12 12:26:45;;;;;;;1.13;1.00;;;25.40;82.90;;;;;;5035798;28;20221;-92
2022/09/12 12:29:13;;;;;;;2.17;1.15;;;25.30;83.30;;;;;;5037216;28;20227;-93
2022/09/12 12:32:14;;;;;;;1.25;0.90;;;25.30;83.80;;;;;;5013287;28;20241;-93
2022/09/12 12:34:42;;;;;;;1.50;1.15;;;25.30;82.40;;;;;;5012724;28;20228;-93
2022/09/12 12:37:46;;;;;;;1.00;0.90;;;25.30;83.90;;;;;;5036428;28;20209;-92
2022/09/12 12:40:23;;;;;;;1.45;0.90;;;25.20;83.60;;;;;;5032633;28;20224;-92
2022/09/12 12:43:19;;;;;;;4.03;1.20;;;25.20;83.70;;;;;;5014680;28;20441;-92
2022/09/12 12:46:05;;;;;;;1.15;0.80;;;25.20;83.30;;;;;;5012122;28;20259;-93
2022/09/12 12:48:54;;;;;;;1.00;0.95;;;25.20;82.80;;;;;;5032542;28;20271;-93
2022/09/12 12:51:37;;;;;;;1.00;0.80;;;25.30;84.30;;;;;;5038835;28;20232;-92
2022/09/12 12:54:06;;;;;;;1.60;1.13;;;25.40;84.90;;;;;;5028736;28;20241;-92
2022/09/12 12:56:41;;;;;;;2.22;1.02;;;25.50;83.90;;;;;;5037685;28;20229;-92
2022/09/12 12:59:21;;;;;;;1.77;1.00;;;25.50;82.20;;;;;;5023398;28;20236;-92
2022/09/12 13:01:51;;;;;;;1.30;1.00;;;25.60;82.00;;;;;;5021100;28;20236;-92
2022/09/12 13:04:19;;;;;;;1.98;0.90;;;25.40;81.10;;;;;;5022094;28;20261;-92
2022/09/12 13:06:56;;;;;;;1.48;1.00;;;25.30;81.70;;;;;;5047680;28;20248;-93
2022/09/12 13:09:27;;;;;;;1.25;1.05;;;25.10;81.00;;;;;;5016494;28;20225;-93
2022/09/12 13:12:02;;;;;;;1.38;0.98;;;24.90;81.30;;;;;;5023667;28;20225;-92